Time;durP1;ratioP1;P1;durP2;ratioP2;P2;SDS_P1;SDS_P2;PMS_P1;PMS_P2;Temp;Humidity;BMP_temperature;BMP_pressure;BME280_temperature;BME280_humidity;BME280_pressure;Samples;Min_cycle;Max_cycle;Signal;HPM_P1;HPM_P2
2021/03/04 00:01:43;;;;;;;2.65;2.20;;;20.10;48.00;;;;;;6197761;28;20030;-70
2021/03/04 00:04:43;;;;;;;2.35;1.77;;;20.10;48.00;;;;;;6197961;28;20110;-69
2021/03/04 00:07:44;;;;;;;2.05;1.70;;;20.10;48.00;;;;;;6197570;28;20033;-70
2021/03/04 00:10:45;;;;;;;2.85;2.00;;;20.10;48.00;;;;;;6197628;28;20104;-69
2021/03/04 00:13:46;;;;;;;2.53;1.83;;;20.10;48.00;;;;;;6197676;28;20046;-70
2021/03/04 00:16:46;;;;;;;2.85;1.90;;;20.10;48.00;;;;;;6196678;28;20056;-69
2021/03/04 00:19:47;;;;;;;2.60;1.83;;;20.10;48.00;;;;;;6192593;28;20041;-70
2021/03/04 00:22:47;;;;;;;3.20;2.10;;;20.00;48.00;;;;;;6196288;28;20085;-69
2021/03/04 00:25:48;;;;;;;3.22;1.60;;;20.10;48.00;;;;;;6196079;28;20558;-70
2021/03/04 00:28:48;;;;;;;1.88;1.65;;;20.10;48.00;;;;;;6196081;28;20030;-70
2021/03/04 00:31:49;;;;;;;4.60;2.15;;;20.10;48.00;;;;;;6196009;28;20088;-69
2021/03/04 00:34:49;;;;;;;2.63;1.95;;;20.10;48.00;;;;;;6196264;28;20028;-70
2021/03/04 00:37:50;;;;;;;2.85;1.83;;;20.10;48.00;;;;;;6180580;28;20509;-70
2021/03/04 00:40:51;;;;;;;2.55;1.80;;;20.00;48.00;;;;;;6148984;28;20063;-69
2021/03/04 00:43:51;;;;;;;2.50;1.70;;;20.10;48.00;;;;;;6192318;28;20030;-70
2021/03/04 00:46:52;;;;;;;2.10;1.70;;;20.10;48.00;;;;;;6195655;28;20038;-69
2021/03/04 00:49:52;;;;;;;3.10;1.88;;;20.10;48.00;;;;;;6195680;28;20026;-70
2021/03/04 00:52:53;;;;;;;2.70;2.08;;;20.10;48.00;;;;;;6195509;28;20038;-69
2021/03/04 00:55:53;;;;;;;3.17;1.73;;;20.10;48.00;;;;;;6168981;28;20027;-69
2021/03/04 00:58:54;;;;;;;2.20;1.70;;;20.10;48.00;;;;;;6183973;28;20034;-69
2021/03/04 01:01:54;;;;;;;2.72;1.92;;;20.10;48.00;;;;;;6195522;28;20026;-69
2021/03/04 01:04:55;;;;;;;2.42;1.80;;;20.00;48.00;;;;;;6195325;28;20034;-69
2021/03/04 01:07:55;;;;;;;2.22;1.80;;;20.10;48.00;;;;;;6195089;28;20033;-70
2021/03/04 01:10:56;;;;;;;3.50;1.88;;;20.10;48.10;;;;;;6195397;28;20037;-70
2021/03/04 01:13:56;;;;;;;2.78;1.90;;;20.10;48.10;;;;;;6195169;28;20037;-69
2021/03/04 01:16:58;;;;;;;2.70;1.75;;;20.00;48.00;;;;;;6178542;28;533214;-69
2021/03/04 01:19:59;;;;;;;2.70;1.98;;;20.10;48.10;;;;;;6196089;28;20314;-69
2021/03/04 01:23:00;;;;;;;2.78;1.98;;;20.10;48.10;;;;;;6195909;28;20026;-70
2021/03/04 01:26:01;;;;;;;2.97;2.22;;;20.10;48.10;;;;;;6196356;28;20437;-69
2021/03/04 01:29:02;;;;;;;2.50;1.90;;;20.10;48.10;;;;;;6196405;28;20523;-70
2021/03/04 01:32:04;;;;;;;3.70;2.40;;;20.00;48.00;;;;;;6185738;28;20039;-70
2021/03/04 01:35:06;;;;;;;2.45;1.70;;;20.00;48.00;;;;;;6193263;28;20045;-70
2021/03/04 01:38:06;;;;;;;3.00;2.10;;;20.00;48.00;;;;;;6195789;28;20022;-69
2021/03/04 01:41:07;;;;;;;2.47;1.77;;;20.00;48.00;;;;;;6195766;28;20022;-69
2021/03/04 01:44:07;;;;;;;1.98;1.67;;;20.00;48.00;;;;;;6184852;28;20138;-70
2021/03/04 01:47:08;;;;;;;2.45;1.75;;;20.00;48.00;;;;;;6171726;28;20459;-69
2021/03/04 01:50:09;;;;;;;3.65;1.90;;;20.00;48.00;;;;;;6192547;28;20026;-69
2021/03/04 01:53:10;;;;;;;3.20;2.10;;;20.00;48.00;;;;;;6195413;28;20046;-69
2021/03/04 01:56:11;;;;;;;2.15;1.70;;;20.10;48.10;;;;;;6195449;28;20104;-69
2021/03/04 01:59:12;;;;;;;2.72;1.80;;;20.00;48.00;;;;;;6172987;28;20030;-70
2021/03/04 02:02:13;;;;;;;3.17;1.80;;;20.00;48.00;;;;;;6195377;28;20121;-70
2021/03/04 02:05:16;;;;;;;2.40;1.90;;;20.10;48.20;;;;;;6195022;28;20034;-69
2021/03/04 02:08:33;;;;;;;2.63;1.80;;;20.00;48.00;;;;;;6195103;28;20038;-69
2021/03/04 02:11:55;;;;;;;2.33;1.90;;;20.00;48.00;;;;;;6195203;28;20489;-69
2021/03/04 02:15:01;;;;;;;2.10;1.70;;;20.00;48.00;;;;;;6194572;28;20067;-69
2021/03/04 02:18:06;;;;;;;2.30;1.75;;;20.10;48.10;;;;;;6195106;28;20038;-69
2021/03/04 02:21:12;;;;;;;3.08;2.08;;;20.00;48.00;;;;;;6194916;28;20062;-69
2021/03/04 02:24:28;;;;;;;2.92;1.83;;;20.00;48.00;;;;;;6194670;28;20019;-69
2021/03/04 02:27:29;;;;;;;1.83;1.50;;;20.00;48.00;;;;;;6194761;28;20481;-69
2021/03/04 02:30:38;;;;;;;2.10;1.65;;;20.00;48.00;;;;;;6175991;28;20023;-69
2021/03/04 02:33:42;;;;;;;2.63;2.00;;;20.00;48.00;;;;;;6167489;28;20034;-69
2021/03/04 02:36:45;;;;;;;2.13;1.73;;;20.00;48.10;;;;;;6194907;28;20069;-70
2021/03/04 02:39:49;;;;;;;2.58;1.92;;;20.00;48.00;;;;;;6194528;28;20034;-70
2021/03/04 02:42:51;;;;;;;2.88;2.05;;;20.00;48.00;;;;;;6195991;28;20068;-69
2021/03/04 02:45:52;;;;;;;3.00;1.80;;;20.00;48.00;;;;;;6167507;28;20031;-69
2021/03/04 02:48:53;;;;;;;2.80;2.03;;;20.00;48.00;;;;;;6157331;28;20023;-69
2021/03/04 02:51:54;;;;;;;2.78;2.00;;;20.00;48.00;;;;;;6199702;28;20102;-69
2021/03/04 02:54:55;;;;;;;2.08;1.63;;;20.10;48.10;;;;;;6200047;28;20153;-70
2021/03/04 02:57:57;;;;;;;3.92;2.30;;;20.00;48.00;;;;;;6200642;28;20088;-69
2021/03/04 03:00:59;;;;;;;2.40;2.03;;;20.00;48.00;;;;;;6200308;28;20030;-69
2021/03/04 03:04:01;;;;;;;2.53;2.08;;;20.00;48.00;;;;;;6200373;28;20026;-69
2021/03/04 03:07:03;;;;;;;2.60;2.05;;;20.00;48.00;;;;;;6199822;28;20047;-69
2021/03/04 03:10:05;;;;;;;3.20;1.90;;;20.00;48.00;;;;;;6200204;28;20030;-69
2021/03/04 03:13:08;;;;;;;2.08;1.73;;;20.00;48.00;;;;;;6200503;28;20165;-69
2021/03/04 03:16:08;;;;;;;2.15;1.80;;;20.00;48.00;;;;;;6199809;28;20054;-69
2021/03/04 03:19:09;;;;;;;1.92;1.80;;;20.00;48.00;;;;;;6199939;28;20045;-69
2021/03/04 03:22:09;;;;;;;2.72;2.00;;;20.00;48.00;;;;;;6199848;28;20022;-69
2021/03/04 03:25:11;;;;;;;3.45;2.20;;;20.00;48.00;;;;;;6199793;28;20042;-70
2021/03/04 03:28:12;;;;;;;3.05;2.30;;;20.00;48.00;;;;;;6199753;28;20037;-69
2021/03/04 03:31:17;;;;;;;3.33;1.83;;;20.00;48.00;;;;;;6199708;28;20018;-69
2021/03/04 03:34:17;;;;;;;;;;;20.00;48.00;;;;;;6200231;28;20513;-69
2021/03/04 03:37:19;;;;;;;2.67;2.30;;;20.00;48.00;;;;;;6199541;28;19906;-70
2021/03/04 03:40:19;;;;;;;2.75;1.92;;;20.00;48.00;;;;;;6199493;28;20117;-69
2021/03/04 03:43:21;;;;;;;3.03;2.10;;;20.00;48.00;;;;;;6199645;28;20023;-69
2021/03/04 03:46:23;;;;;;;4.30;2.45;;;20.00;48.00;;;;;;6199311;28;20477;-70
2021/03/04 03:49:25;;;;;;;2.38;1.90;;;20.00;47.90;;;;;;6199517;28;20023;-69
2021/03/04 03:52:27;;;;;;;4.32;2.10;;;20.00;48.70;;;;;;6199287;28;20070;-69
2021/03/04 03:55:28;;;;;;;3.05;2.58;;;20.00;48.00;;;;;;6198829;28;20030;-69
2021/03/04 03:58:29;;;;;;;3.25;2.17;;;20.00;48.00;;;;;;6199143;28;20030;-69
2021/03/04 04:01:32;;;;;;;2.75;2.05;;;20.00;48.00;;;;;;6198526;28;20022;-69
2021/03/04 04:04:33;;;;;;;2.67;1.92;;;20.00;48.00;;;;;;6198874;28;20367;-69
2021/03/04 04:07:34;;;;;;;2.17;1.80;;;20.00;48.00;;;;;;6198715;28;20034;-69
2021/03/04 04:10:36;;;;;;;2.35;1.80;;;20.00;47.90;;;;;;6171426;28;20057;-69
2021/03/04 04:13:36;;;;;;;3.00;2.20;;;20.00;48.00;;;;;;6198812;28;20065;-69
2021/03/04 04:16:37;;;;;;;2.40;1.88;;;20.00;48.00;;;;;;6198252;28;20054;-69
2021/03/04 04:19:38;;;;;;;4.15;2.47;;;20.00;47.90;;;;;;6198581;28;20030;-69
2021/03/04 04:22:39;;;;;;;2.63;2.28;;;20.00;47.90;;;;;;6198860;28;20041;-69
2021/03/04 04:25:47;;;;;;;3.10;2.08;;;20.00;48.00;;;;;;6198316;28;20436;-70
2021/03/04 04:28:48;;;;;;;3.38;2.80;;;20.00;47.80;;;;;;6198462;28;20057;-69
2021/03/04 04:31:48;;;;;;;2.63;2.00;;;20.00;47.90;;;;;;6198363;28;20031;-69
2021/03/04 04:34:49;;;;;;;3.20;2.60;;;20.00;48.00;;;;;;6198292;28;20015;-69
2021/03/04 04:37:49;;;;;;;3.25;2.40;;;20.00;47.90;;;;;;6198084;28;20038;-69
2021/03/04 04:40:51;;;;;;;2.78;2.20;;;20.00;47.90;;;;;;6198060;28;20041;-69
2021/03/04 04:43:52;;;;;;;3.85;1.90;;;20.00;47.90;;;;;;6198086;28;20026;-69
2021/03/04 04:46:52;;;;;;;2.67;2.22;;;20.00;47.90;;;;;;6197774;28;20069;-69
2021/03/04 04:49:53;;;;;;;2.42;1.92;;;20.00;47.80;;;;;;6197867;28;20027;-69
2021/03/04 04:52:53;;;;;;;3.22;2.38;;;20.00;47.90;;;;;;6197742;28;20049;-70
2021/03/04 04:55:54;;;;;;;2.25;1.98;;;20.00;47.80;;;;;;6197809;28;20076;-70
2021/03/04 04:58:54;;;;;;;2.53;1.88;;;20.00;47.90;;;;;;6192607;28;20029;-70
2021/03/04 05:01:55;;;;;;;3.10;2.40;;;20.00;47.90;;;;;;6162383;28;20037;-70
2021/03/04 05:04:55;;;;;;;3.75;2.47;;;20.00;47.90;;;;;;6196665;28;20038;-69
2021/03/04 05:07:56;;;;;;;2.53;2.05;;;20.00;47.90;;;;;;6197256;28;20089;-70
2021/03/04 05:10:56;;;;;;;4.03;2.30;;;20.00;48.60;;;;;;6197488;28;20054;-70
2021/03/04 05:13:57;;;;;;;3.17;2.28;;;20.00;47.80;;;;;;6197257;28;20105;-69
2021/03/04 05:16:58;;;;;;;3.10;2.25;;;20.00;47.90;;;;;;6196927;28;20609;-69
2021/03/04 05:19:58;;;;;;;3.83;2.55;;;20.00;47.80;;;;;;6197310;28;20022;-70
2021/03/04 05:22:59;;;;;;;4.20;2.92;;;20.00;47.80;;;;;;6196869;28;20041;-69
2021/03/04 05:26:00;;;;;;;3.58;2.30;;;20.00;47.80;;;;;;6196968;28;20038;-69
2021/03/04 05:29:00;;;;;;;3.13;2.17;;;20.00;47.80;;;;;;6196825;28;20473;-70
2021/03/04 05:32:01;;;;;;;2.78;2.20;;;20.00;47.80;;;;;;6196978;28;20057;-69
2021/03/04 05:35:02;;;;;;;3.72;2.42;;;20.00;47.80;;;;;;6197003;28;20041;-69
2021/03/04 05:38:03;;;;;;;2.85;2.40;;;20.00;47.70;;;;;;6197809;28;20033;-69
2021/03/04 05:41:05;;;;;;;2.80;2.25;;;20.00;47.60;;;;;;6196974;28;20027;-69
2021/03/04 05:44:06;;;;;;;3.33;2.45;;;20.00;47.80;;;;;;6196612;28;20058;-69
2021/03/04 05:47:08;;;;;;;3.63;2.30;;;20.00;47.70;;;;;;6196671;28;20045;-70
2021/03/04 05:50:17;;;;;;;2.75;2.20;;;20.00;47.80;;;;;;6193226;28;20433;-69
2021/03/04 05:53:19;;;;;;;4.63;2.60;;;20.00;47.70;;;;;;6166128;28;20062;-69
2021/03/04 05:56:20;;;;;;;2.85;2.25;;;20.00;47.80;;;;;;6182899;28;20023;-70
2021/03/04 05:59:23;;;;;;;4.28;2.47;;;20.00;47.80;;;;;;6188757;28;20037;-69
2021/03/04 06:02:24;;;;;;;3.90;2.55;;;20.00;47.80;;;;;;6191512;28;20078;-68
2021/03/04 06:05:25;;;;;;;3.38;2.40;;;20.00;47.70;;;;;;6196318;28;20070;-69
2021/03/04 06:08:26;;;;;;;3.45;2.40;;;20.00;47.80;;;;;;6196175;28;20072;-69
2021/03/04 06:11:26;;;;;;;3.05;2.50;;;20.00;47.70;;;;;;6175148;28;20027;-70
2021/03/04 06:14:27;;;;;;;3.53;2.53;;;20.00;47.70;;;;;;6174398;28;20030;-69
2021/03/04 06:17:28;;;;;;;3.88;2.63;;;20.00;47.70;;;;;;6195707;28;20125;-70
2021/03/04 06:20:44;;;;;;;3.08;2.38;;;20.00;47.70;;;;;;6196048;28;20389;-69
2021/03/04 06:23:45;;;;;;;3.05;2.40;;;20.00;47.80;;;;;;6196077;28;20030;-69
2021/03/04 06:26:52;;;;;;;4.32;2.45;;;20.00;47.80;;;;;;6196105;28;20642;-69
2021/03/04 06:29:54;;;;;;;3.05;2.47;;;20.00;47.80;;;;;;6195907;28;20023;-71
2021/03/04 06:33:00;;;;;;;3.00;2.25;;;20.10;47.90;;;;;;6194737;28;20034;-69
2021/03/04 06:36:12;;;;;;;4.68;2.47;;;20.00;47.80;;;;;;6195906;28;20058;-69
2021/03/04 06:39:12;;;;;;;3.20;2.33;;;20.10;47.80;;;;;;6195740;28;20385;-69
2021/03/04 06:42:14;;;;;;;3.22;2.50;;;20.10;47.90;;;;;;6196001;28;20023;-72
2021/03/04 06:45:25;;;;;;;2.88;2.15;;;20.10;47.90;;;;;;6195597;28;20058;-69
2021/03/04 06:48:26;;;;;;;5.10;2.90;;;20.10;47.90;;;;;;6172084;28;20035;-69
2021/03/04 06:51:26;;;;;;;3.92;2.60;;;20.10;47.90;;;;;;6166989;28;20078;-70
2021/03/04 06:54:27;;;;;;;3.03;2.30;;;20.10;47.90;;;;;;6175571;28;20027;-71
2021/03/04 06:57:27;;;;;;;4.43;2.60;;;20.10;47.90;;;;;;6170385;28;20030;-68
2021/03/04 07:00:28;;;;;;;3.45;2.28;;;20.10;47.90;;;;;;6171893;28;20501;-69
2021/03/04 07:03:37;;;;;;;2.90;2.08;;;20.10;47.90;;;;;;6173109;28;20019;-69
2021/03/04 07:06:40;;;;;;;2.92;2.17;;;20.10;47.90;;;;;;6180462;28;20043;-69
2021/03/04 07:09:40;;;;;;;3.85;2.50;;;20.10;48.00;;;;;;6182095;28;20022;-70
2021/03/04 07:12:44;;;;;;;3.65;2.58;;;20.10;48.00;;;;;;6195339;28;20512;-69
2021/03/04 07:15:45;;;;;;;3.60;2.38;;;20.10;48.00;;;;;;6169713;28;20046;-69
2021/03/04 07:18:47;;;;;;;2.47;2.20;;;20.10;48.00;;;;;;6174017;28;20037;-69
2021/03/04 07:21:49;;;;;;;3.80;2.50;;;20.10;48.00;;;;;;6170915;28;20031;-70
2021/03/04 07:24:50;;;;;;;3.28;2.30;;;20.10;48.00;;;;;;6175833;28;20053;-69
2021/03/04 07:27:51;;;;;;;4.03;2.28;;;20.10;48.00;;;;;;6195975;28;20023;-69
2021/03/04 07:30:52;;;;;;;4.07;2.75;;;20.10;48.10;;;;;;6199900;28;20718;-70
2021/03/04 07:33:53;;;;;;;3.38;2.53;;;20.10;48.00;;;;;;6200129;28;20385;-69
2021/03/04 07:36:54;;;;;;;4.10;2.30;;;20.10;48.10;;;;;;6199853;28;20053;-69
2021/03/04 07:39:59;;;;;;;3.28;2.40;;;20.10;48.10;;;;;;6200016;28;20081;-69
2021/03/04 07:43:03;;;;;;;;;;;20.10;48.10;;;;;;6187163;28;20038;-70
2021/03/04 07:46:03;;;;;;;3.50;2.55;;;20.10;48.10;;;;;;6191332;28;20008;-69
2021/03/04 07:49:06;;;;;;;5.38;2.80;;;20.10;48.10;;;;;;6176007;28;20084;-69
2021/03/04 07:52:11;;;;;;;5.00;2.67;;;20.10;48.10;;;;;;6200107;28;20541;-69
2021/03/04 07:55:14;;;;;;;3.55;2.42;;;20.10;48.10;;;;;;6184362;28;20033;-70
2021/03/04 07:58:15;;;;;;;3.50;2.40;;;20.10;48.10;;;;;;6195613;28;20023;-70
2021/03/04 08:01:16;;;;;;;4.75;2.58;;;20.10;48.20;;;;;;6191882;28;20033;-69
2021/03/04 08:04:24;;;;;;;4.40;2.53;;;20.10;48.20;;;;;;6186204;28;20848;-69
2021/03/04 08:07:26;;;;;;;3.22;2.03;;;20.10;48.20;;;;;;6199405;28;20421;-70
2021/03/04 08:10:26;;;;;;;4.55;2.70;;;20.10;48.20;;;;;;6198180;28;20022;-69
2021/03/04 08:13:35;;;;;;;4.20;2.65;;;20.10;48.20;;;;;;6199663;28;20106;-70
2021/03/04 08:16:36;;;;;;;4.38;2.70;;;20.10;48.20;;;;;;6199227;28;20130;-69
2021/03/04 08:19:36;;;;;;;4.18;2.60;;;20.10;48.20;;;;;;6199249;28;20026;-69
2021/03/04 08:22:43;;;;;;;4.05;2.65;;;20.10;48.20;;;;;;6195169;28;20392;-69
2021/03/04 08:25:44;;;;;;;7.93;4.88;;;20.10;48.20;;;;;;6170633;28;20065;-70
2021/03/04 08:28:47;;;;;;;5.22;3.03;;;20.10;48.00;;;;;;6199005;28;20057;-69
2021/03/04 08:31:48;;;;;;;6.28;3.20;;;20.10;48.00;;;;;;6199119;28;20023;-70
2021/03/04 08:34:48;;;;;;;5.25;3.40;;;20.10;48.00;;;;;;6199417;28;20044;-69
2021/03/04 08:37:56;;;;;;;4.35;3.20;;;20.10;48.00;;;;;;6198520;28;20030;-70
2021/03/04 08:40:58;;;;;;;5.07;3.50;;;20.10;48.00;;;;;;6197772;28;20023;-70
2021/03/04 08:44:12;;;;;;;4.45;2.95;;;20.10;48.00;;;;;;6191036;28;20038;-70
2021/03/04 08:47:14;;;;;;;4.28;3.00;;;20.10;48.00;;;;;;6198297;28;20053;-70
2021/03/04 08:50:15;;;;;;;9.10;3.35;;;20.10;48.00;;;;;;6198071;28;20121;-70
2021/03/04 08:53:21;;;;;;;5.15;3.33;;;20.10;48.00;;;;;;6198691;28;20053;-70
2021/03/04 08:56:22;;;;;;;5.82;3.30;;;20.10;48.00;;;;;;6198583;28;20026;-69
2021/03/04 08:59:26;;;;;;;5.65;3.08;;;20.10;48.00;;;;;;6198010;28;20407;-69
2021/03/04 09:02:27;;;;;;;4.57;3.05;;;20.10;48.10;;;;;;6198463;28;20022;-69
2021/03/04 09:05:27;;;;;;;4.63;3.20;;;20.10;48.00;;;;;;6195014;28;20046;-69
2021/03/04 09:08:44;;;;;;;5.50;3.53;;;20.10;48.10;;;;;;6197936;28;20030;-69
2021/03/04 09:11:46;;;;;;;6.10;3.30;;;20.10;48.10;;;;;;6193610;28;20528;-70
2021/03/04 09:14:53;;;;;;;7.05;3.53;;;20.10;48.10;;;;;;6174145;28;20015;-70
2021/03/04 09:17:53;;;;;;;4.20;3.00;;;20.10;48.10;;;;;;6194900;28;20058;-69
2021/03/04 09:20:54;;;;;;;5.32;3.35;;;20.10;48.10;;;;;;6198854;28;20563;-69
2021/03/04 09:23:55;;;;;;;5.35;3.30;;;20.10;48.10;;;;;;6198933;28;20027;-70
2021/03/04 09:26:56;;;;;;;5.10;3.10;;;20.10;48.10;;;;;;6198249;28;20110;-69
2021/03/04 09:29:56;;;;;;;3.83;2.95;;;20.10;48.20;;;;;;6198295;28;20031;-69
2021/03/04 09:32:57;;;;;;;6.68;3.15;;;20.10;48.10;;;;;;6198217;28;20073;-69
2021/03/04 09:36:00;;;;;;;6.18;3.22;;;20.10;48.10;;;;;;6198690;28;20037;-69
2021/03/04 09:39:01;;;;;;;5.65;3.65;;;20.10;48.10;;;;;;6197684;28;20497;-69
2021/03/04 09:42:01;;;;;;;4.90;3.28;;;20.10;48.20;;;;;;6194393;28;20066;-69
2021/03/04 09:45:10;;;;;;;5.35;3.20;;;20.10;48.20;;;;;;6198288;28;20030;-69
2021/03/04 09:48:11;;;;;;;6.43;3.03;;;20.10;48.10;;;;;;6197643;28;20450;-69
2021/03/04 09:51:11;;;;;;;3.78;2.72;;;20.10;48.10;;;;;;6197379;28;20026;-70
2021/03/04 09:54:23;;;;;;;4.07;2.80;;;20.10;48.20;;;;;;6198178;28;20370;-70
2021/03/04 09:57:23;;;;;;;5.05;2.75;;;20.10;48.20;;;;;;6197473;28;20030;-69
2021/03/04 10:00:25;;;;;;;4.68;2.83;;;20.10;48.20;;;;;;6197830;28;20033;-72
2021/03/04 10:03:34;;;;;;;3.88;2.80;;;20.10;48.20;;;;;;6197820;28;20441;-69
2021/03/04 10:06:38;;;;;;;3.83;2.85;;;20.10;48.20;;;;;;6186235;28;20145;-70
2021/03/04 10:09:39;;;;;;;3.85;2.75;;;20.10;48.20;;;;;;6186973;28;20051;-69
2021/03/04 10:12:47;;;;;;;5.72;3.05;;;20.10;48.20;;;;;;6181130;28;20512;-69
2021/03/04 10:15:48;;;;;;;4.10;2.58;;;20.10;48.10;;;;;;6171449;28;20043;-69
2021/03/04 10:18:50;;;;;;;4.50;2.90;;;20.20;48.00;;;;;;6183038;28;20038;-69
2021/03/04 10:21:50;;;;;;;4.68;2.75;;;20.20;47.90;;;;;;6197248;28;20030;-68
2021/03/04 10:24:50;;;;;;;4.53;2.92;;;20.20;47.80;;;;;;6197611;28;20083;-69
2021/03/04 10:27:51;;;;;;;4.32;2.70;;;20.30;47.70;;;;;;6170542;28;20123;-70
2021/03/04 10:30:52;;;;;;;4.00;2.60;;;20.20;47.80;;;;;;6175731;28;20042;-70
2021/03/04 10:33:52;;;;;;;5.10;2.88;;;20.20;47.90;;;;;;6196716;28;20502;-70
2021/03/04 10:36:53;;;;;;;4.10;2.47;;;20.20;48.00;;;;;;6195753;28;20026;-70
2021/03/04 10:39:53;;;;;;;3.13;2.50;;;20.20;48.00;;;;;;6190133;28;20089;-70
2021/03/04 10:42:54;;;;;;;7.10;2.95;;;20.20;48.10;;;;;;6178736;28;20031;-69
2021/03/04 10:45:55;;;;;;;2.88;2.25;;;20.20;48.10;;;;;;6196697;28;20440;-70
2021/03/04 10:48:55;;;;;;;4.28;2.60;;;20.20;48.10;;;;;;6195333;28;20030;-70
2021/03/04 10:51:56;;;;;;;5.13;2.95;;;20.20;48.10;;;;;;6195531;28;20057;-70
2021/03/04 10:54:57;;;;;;;4.85;2.47;;;20.20;48.10;;;;;;6196128;28;20480;-70
2021/03/04 10:57:58;;;;;;;3.13;2.33;;;20.20;48.10;;;;;;6195553;28;20031;-70
2021/03/04 11:00:58;;;;;;;4.43;2.58;;;20.20;48.10;;;;;;6196303;28;20030;-70
2021/03/04 11:03:58;;;;;;;3.97;2.65;;;20.20;48.10;;;;;;6197503;28;20054;-70
2021/03/04 11:06:59;;;;;;;5.47;3.00;;;20.20;48.20;;;;;;6200470;28;20045;-71
2021/03/04 11:10:00;;;;;;;3.28;2.08;;;20.20;48.20;;;;;;6192746;28;20069;-70
2021/03/04 11:13:00;;;;;;;4.38;2.85;;;20.20;48.20;;;;;;6200591;28;20030;-69
2021/03/04 11:16:01;;;;;;;4.88;2.63;;;20.20;48.20;;;;;;6200017;28;20414;-69
2021/03/04 11:19:03;;;;;;;4.38;2.63;;;20.20;48.20;;;;;;6192940;28;20126;-69
2021/03/04 11:22:05;;;;;;;6.03;3.88;;;20.20;48.20;;;;;;6200604;28;20034;-69
2021/03/04 11:25:06;;;;;;;7.57;3.67;;;20.10;47.00;;;;;;6200526;28;20392;-69
2021/03/04 11:28:08;;;;;;;4.18;3.10;;;20.10;47.00;;;;;;6198261;28;20077;-69
2021/03/04 11:31:08;;;;;;;5.15;3.30;;;20.20;47.20;;;;;;6200548;28;20030;-70
2021/03/04 11:34:09;;;;;;;4.72;3.03;;;20.20;47.30;;;;;;6200172;28;20073;-69
2021/03/04 11:37:09;;;;;;;4.38;3.05;;;20.20;47.40;;;;;;6200503;28;20072;-71
2021/03/04 11:40:11;;;;;;;3.95;2.58;;;20.20;47.50;;;;;;6194842;28;20019;-69
2021/03/04 11:43:11;;;;;;;3.60;2.72;;;20.20;47.60;;;;;;6191293;28;20034;-69
2021/03/04 11:46:12;;;;;;;7.07;3.17;;;20.20;47.60;;;;;;6198699;28;20050;-70
2021/03/04 11:49:13;;;;;;;4.43;2.53;;;20.20;47.70;;;;;;6191214;28;20389;-70
2021/03/04 11:52:13;;;;;;;4.28;2.65;;;20.20;47.70;;;;;;6190900;28;20026;-69
2021/03/04 11:55:14;;;;;;;3.80;2.63;;;20.20;47.70;;;;;;6196913;28;20424;-70
2021/03/04 11:58:14;;;;;;;4.15;2.78;;;20.20;47.80;;;;;;6180268;28;20022;-69
2021/03/04 12:01:15;;;;;;;4.03;2.88;;;20.20;48.40;;;;;;6199662;28;20080;-70
2021/03/04 12:04:16;;;;;;;3.38;2.20;;;20.20;47.80;;;;;;6198913;28;20019;-69
2021/03/04 12:07:16;;;;;;;2.72;1.95;;;20.20;47.70;;;;;;6199478;28;20397;-70
2021/03/04 12:10:17;;;;;;;3.53;2.25;;;20.20;47.70;;;;;;6198615;28;20038;-70
2021/03/04 12:13:17;;;;;;;2.47;2.03;;;20.20;47.80;;;;;;6199694;28;20493;-70
2021/03/04 12:16:18;;;;;;;3.85;2.30;;;20.20;47.80;;;;;;6198108;28;20046;-70
2021/03/04 12:19:19;;;;;;;3.17;2.20;;;20.20;47.80;;;;;;6197467;28;20034;-69
2021/03/04 12:22:20;;;;;;;2.58;2.13;;;20.20;47.80;;;;;;6199228;28;20026;-70
2021/03/04 12:25:20;;;;;;;2.72;1.90;;;20.20;47.80;;;;;;6198743;28;20455;-70
2021/03/04 12:28:22;;;;;;;3.58;1.98;;;20.20;47.80;;;;;;6197148;28;20026;-69
2021/03/04 12:31:22;;;;;;;3.28;2.35;;;20.20;47.80;;;;;;6199079;28;20029;-70
2021/03/04 12:34:23;;;;;;;3.58;2.13;;;20.20;47.80;;;;;;6198719;28;20377;-69
2021/03/04 12:37:23;;;;;;;2.72;2.05;;;20.10;47.70;;;;;;6198681;28;20018;-70
2021/03/04 12:40:28;;;;;;;3.03;2.13;;;20.20;47.80;;;;;;6197939;28;20015;-70
2021/03/04 12:43:28;;;;;;;6.03;2.20;;;20.10;47.70;;;;;;6180402;28;20054;-70
2021/03/04 12:46:29;;;;;;;2.70;2.05;;;20.20;47.80;;;;;;6196385;28;20651;-69
2021/03/04 12:49:29;;;;;;;3.20;1.80;;;20.20;47.80;;;;;;6197812;28;20026;-70
2021/03/04 12:52:30;;;;;;;3.70;2.53;;;20.20;47.80;;;;;;6198378;28;20023;-70
2021/03/04 12:55:30;;;;;;;2.90;2.10;;;20.10;47.70;;;;;;6177565;28;20446;-69
2021/03/04 12:58:31;;;;;;;2.83;1.77;;;20.10;47.70;;;;;;6195493;28;20027;-70
2021/03/04 13:01:32;;;;;;;3.22;2.10;;;20.10;47.80;;;;;;6198201;28;20540;-69
2021/03/04 13:04:33;;;;;;;2.65;1.88;;;20.10;47.80;;;;;;6197843;28;20061;-70
2021/03/04 13:07:33;;;;;;;4.57;2.30;;;20.20;47.90;;;;;;6196524;28;20096;-70
2021/03/04 13:10:34;;;;;;;3.55;2.20;;;20.20;47.90;;;;;;6197432;28;20037;-70
2021/03/04 13:13:34;;;;;;;2.40;1.83;;;20.10;47.80;;;;;;6181948;28;20497;-70
2021/03/04 13:16:35;;;;;;;2.70;1.65;;;20.10;47.90;;;;;;6190528;28;20166;-69
2021/03/04 13:19:35;;;;;;;3.78;1.77;;;20.10;47.90;;;;;;6188602;28;20448;-69
2021/03/04 13:22:36;;;;;;;3.72;1.58;;;20.20;47.90;;;;;;6197700;28;20018;-70
2021/03/04 13:25:36;;;;;;;3.00;1.83;;;20.10;47.90;;;;;;6184642;28;20790;-70
2021/03/04 13:28:37;;;;;;;2.50;1.58;;;20.20;47.90;;;;;;6189285;28;20036;-69
2021/03/04 13:31:37;;;;;;;3.72;1.80;;;20.20;48.00;;;;;;6187818;28;20032;-70
2021/03/04 13:34:38;;;;;;;1.73;1.40;;;20.20;47.90;;;;;;6197981;28;20385;-70
2021/03/04 13:37:39;;;;;;;3.83;2.15;;;20.10;47.90;;;;;;6196676;28;20030;-70
2021/03/04 13:40:39;;;;;;;2.03;1.70;;;20.10;48.00;;;;;;6191942;28;20026;-69
2021/03/04 13:43:41;;;;;;;2.03;1.63;;;20.20;48.70;;;;;;6194011;28;20041;-70
2021/03/04 13:46:41;;;;;;;2.40;1.60;;;20.20;48.00;;;;;;6197410;28;20061;-69
2021/03/04 13:49:42;;;;;;;3.17;1.80;;;20.10;47.80;;;;;;6196596;28;20038;-70
2021/03/04 13:52:42;;;;;;;3.90;1.98;;;20.10;47.20;;;;;;6197197;28;20512;-70
2021/03/04 13:55:43;;;;;;;2.72;1.58;;;20.10;47.10;;;;;;6196183;28;20104;-70
2021/03/04 13:58:43;;;;;;;2.10;1.65;;;20.10;47.20;;;;;;6196133;28;20046;-70
2021/03/04 14:01:44;;;;;;;4.60;1.90;;;20.10;47.30;;;;;;6197173;28;20374;-70
2021/03/04 14:04:45;;;;;;;3.80;1.80;;;20.20;47.50;;;;;;6182499;28;20488;-69
2021/03/04 14:07:46;;;;;;;4.97;1.63;;;20.20;47.50;;;;;;6180414;28;20031;-70
2021/03/04 14:10:46;;;;;;;4.35;1.83;;;20.20;47.60;;;;;;6192025;28;20505;-70
2021/03/04 14:13:47;;;;;;;2.47;1.30;;;20.10;47.50;;;;;;6185836;28;20059;-69
2021/03/04 14:16:47;;;;;;;4.20;1.70;;;20.20;47.70;;;;;;6182278;28;20424;-70
2021/03/04 14:19:48;;;;;;;3.90;1.77;;;20.10;47.60;;;;;;6175889;28;20019;-70
2021/03/04 14:22:49;;;;;;;4.57;1.80;;;20.20;47.70;;;;;;6195501;28;20027;-70
2021/03/04 14:25:49;;;;;;;4.15;2.10;;;20.20;47.80;;;;;;6195652;28;20493;-69
2021/03/04 14:28:50;;;;;;;2.92;1.90;;;20.10;47.70;;;;;;6193963;28;20027;-70
2021/03/04 14:31:50;;;;;;;4.40;1.90;;;20.10;47.70;;;;;;6193466;28;20026;-70
2021/03/04 14:34:53;;;;;;;4.32;1.85;;;20.20;47.80;;;;;;6195022;28;20026;-69
2021/03/04 14:37:54;;;;;;;3.63;1.95;;;20.10;47.70;;;;;;6188257;28;20065;-70
2021/03/04 14:40:54;;;;;;;3.25;1.67;;;20.20;47.80;;;;;;6196433;28;20031;-70
2021/03/04 14:43:55;;;;;;;7.00;2.10;;;20.20;47.80;;;;;;6186673;28;20034;-70
2021/03/04 14:46:55;;;;;;;9.60;2.20;;;20.20;47.80;;;;;;6198992;28;20035;-70
2021/03/04 14:49:56;;;;;;;5.15;2.00;;;20.20;47.80;;;;;;6199542;28;20072;-69
2021/03/04 14:52:56;;;;;;;6.07;2.33;;;20.20;47.80;;;;;;6200757;28;20026;-70
2021/03/04 14:55:57;;;;;;;6.45;3.15;;;20.20;47.90;;;;;;6193025;28;20023;-70
2021/03/04 14:58:57;;;;;;;7.82;2.60;;;20.10;47.70;;;;;;6192074;28;20065;-70
2021/03/04 15:01:58;;;;;;;5.82;2.40;;;20.10;47.60;;;;;;6195554;28;20485;-69
2021/03/04 15:04:58;;;;;;;4.95;2.13;;;20.20;47.70;;;;;;6196072;28;20296;-69
2021/03/04 15:07:59;;;;;;;9.07;2.83;;;20.10;47.60;;;;;;6166275;28;20050;-69
2021/03/04 15:11:00;;;;;;;9.65;2.65;;;20.20;47.70;;;;;;6176764;28;20027;-70
2021/03/04 15:14:00;;;;;;;7.10;2.50;;;20.20;47.70;;;;;;6193753;28;20066;-70
2021/03/04 15:17:01;;;;;;;7.45;2.75;;;20.20;47.80;;;;;;6199534;28;20125;-69
2021/03/04 15:20:05;;;;;;;11.90;3.53;;;20.10;47.70;;;;;;6180687;28;20513;-69
2021/03/04 15:23:06;;;;;;;7.75;2.90;;;20.20;47.80;;;;;;6196800;28;20139;-70
2021/03/04 15:26:06;;;;;;;7.88;3.17;;;20.20;47.70;;;;;;6172354;28;20082;-69
2021/03/04 15:29:07;;;;;;;11.15;3.30;;;20.20;47.80;;;;;;6183800;28;20377;-70
2021/03/04 15:32:08;;;;;;;8.77;2.63;;;20.20;47.80;;;;;;6199420;28;20449;-69
2021/03/04 15:35:10;;;;;;;9.15;3.05;;;20.20;47.80;;;;;;6197691;28;20088;-70
2021/03/04 15:38:11;;;;;;;10.48;3.00;;;20.20;47.80;;;;;;6197996;28;20030;-70
2021/03/04 15:41:11;;;;;;;9.45;3.10;;;20.20;47.80;;;;;;6199119;28;20018;-70
2021/03/04 15:44:12;;;;;;;7.53;2.90;;;20.20;47.80;;;;;;6190660;28;20038;-70
2021/03/04 15:47:12;;;;;;;6.85;2.63;;;20.20;47.80;;;;;;6197838;28;20126;-70